Time;durP1;ratioP1;P1;durP2;ratioP2;P2;SDS_P1;SDS_P2;PMS_P1;PMS_P2;Temp;Humidity;BMP_temperature;BMP_pressure;BME280_temperature;BME280_humidity;BME280_pressure;Samples;Min_cycle;Max_cycle;Signal;HPM_P1;HPM_P2
2021/10/24 04:50:43;;;;;;;48.28;15.75;;;;;;;;;;6043247;22;20016;-80
2021/10/24 04:53:13;;;;;;;45.97;15.63;;;;;;;;;;5008258;28;20045;-84
2021/10/24 04:55:43;;;;;;;73.65;15.15;;;;;;;;;;5011814;28;20045;-85
2021/10/24 04:58:10;;;;;;;52.25;15.52;;;;;;;;;;5011946;28;20041;-84
2021/10/24 05:00:39;;;;;;;30.35;14.57;;;;;;;;;;5011015;28;20045;-85
2021/10/24 05:03:06;;;;;;;54.60;16.92;;;;;;;;;;5015486;28;20033;-85
2021/10/24 05:05:34;;;;;;;84.55;16.30;;;;;;;;;;5014530;28;20048;-84
2021/10/24 05:08:05;;;;;;;129.20;17.92;;;;;;;;;;5021624;28;20121;-84
2021/10/24 05:10:32;;;;;;;65.75;15.43;;;;;;;;;;5012329;28;20049;-84
2021/10/24 05:13:00;;;;;;;51.25;14.98;;;;;;;;;;5013992;28;20650;-84
2021/10/24 05:15:28;;;;;;;32.63;15.82;;;;;;;;;;5012859;28;20132;-84
2021/10/24 05:17:55;;;;;;;29.88;15.52;;;;;;;;;;5031046;28;20049;-85
2021/10/24 05:20:22;;;;;;;32.72;16.05;;;;;;;;;;5011638;28;20045;-84
2021/10/24 05:22:50;;;;;;;34.63;15.25;;;;;;;;;;5010357;28;20486;-85
2021/10/24 05:25:20;;;;;;;36.80;15.52;;;;;;;;;;5013597;28;20560;-84
2021/10/24 05:27:54;;;;;;;28.83;16.55;;;;;;;;;;5012837;28;20077;-84
2021/10/24 05:30:21;;;;;;;42.78;15.68;;;;;;;;;;5014775;28;20087;-84
2021/10/24 05:32:49;;;;;;;29.08;15.77;;;;;;;;;;5019925;28;20477;-84
2021/10/24 05:35:19;;;;;;;37.97;15.38;;;;;;;;;;4999560;28;20507;-85
2021/10/24 05:37:46;;;;;;;34.03;16.10;;;;;;;;;;5030016;28;20403;-85
2021/10/24 05:40:14;;;;;;;27.25;15.25;;;;;;;;;;5012862;28;20561;-85
2021/10/24 05:42:53;;;;;;;28.70;15.35;;;;;;;;;;5012248;28;20092;-84
2021/10/24 05:45:21;;;;;;;24.98;14.60;;;;;;;;;;5012592;28;20056;-85
2021/10/24 05:47:48;;;;;;;21.98;14.40;;;;;;;;;;5012751;28;20037;-84
2021/10/24 05:50:28;;;;;;;20.08;12.07;;;;;;;;;;5012944;28;20045;-84
2021/10/24 05:52:56;;;;;;;22.85;13.40;;;;;;;;;;5013907;28;20101;-84
2021/10/24 05:55:24;;;;;;;24.65;13.02;;;;;;;;;;5029577;28;20043;-85
2021/10/24 05:57:52;;;;;;;22.10;13.48;;;;;;;;;;5051293;28;20046;-86
2021/10/24 06:00:46;;;;;;;20.88;12.85;;;;;;;;;;5017591;28;20058;-84
2021/10/24 06:03:32;;;;;;;17.80;12.43;;;;;;;;;;5024751;28;20142;-84
2021/10/24 06:06:28;;;;;;;21.13;12.70;;;;;;;;;;5029542;28;20049;-85
2021/10/24 06:08:56;;;;;;;20.13;12.10;;;;;;;;;;5011400;28;20065;-85
2021/10/24 06:11:28;;;;;;;20.95;12.30;;;;;;;;;;5016658;28;20453;-85
2021/10/24 06:13:57;;;;;;;20.55;12.40;;;;;;;;;;5034201;28;20046;-85
2021/10/24 06:16:25;;;;;;;20.70;13.48;;;;;;;;;;5030890;28;20069;-85
2021/10/24 06:18:52;;;;;;;18.83;12.20;;;;;;;;;;5012605;28;20053;-85
2021/10/24 06:21:20;;;;;;;17.55;12.30;;;;;;;;;;5011527;28;20446;-85
2021/10/24 06:23:49;;;;;;;22.77;13.13;;;;;;;;;;5008134;28;20156;-86
2021/10/24 06:26:16;;;;;;;21.60;13.15;;;;;;;;;;5011771;28;20037;-86
2021/10/24 06:28:43;;;;;;;20.77;12.90;;;;;;;;;;5012505;28;20572;-86
2021/10/24 06:31:13;;;;;;;19.30;12.43;;;;;;;;;;5020118;28;20567;-85
2021/10/24 06:33:58;;;;;;;17.10;11.85;;;;;;;;;;5028044;28;20053;-83
2021/10/24 06:36:44;;;;;;;21.60;12.85;;;;;;;;;;5020553;28;20498;-83
2021/10/24 06:39:24;;;;;;;16.55;11.75;;;;;;;;;;5014506;28;20051;-84
2021/10/24 06:41:52;;;;;;;18.70;12.07;;;;;;;;;;5002388;28;20041;-85
2021/10/24 06:44:42;;;;;;;16.25;11.48;;;;;;;;;;5011783;28;20042;-85
2021/10/24 06:47:31;;;;;;;22.75;13.73;;;;;;;;;;5029125;28;20383;-84
2021/10/24 06:50:17;;;;;;;22.42;13.32;;;;;;;;;;5028302;28;20099;-84
2021/10/24 06:52:56;;;;;;;23.45;13.95;;;;;;;;;;5028030;28;20102;-83
2021/10/24 06:56:02;;;;;;;17.23;11.70;;;;;;;;;;4948596;28;20047;-84
2021/10/24 06:58:48;;;;;;;17.23;10.98;;;;;;;;;;4958047;28;20130;-84
2021/10/24 07:01:34;;;;;;;15.02;11.02;;;;;;;;;;5022686;28;20051;-84
2021/10/24 07:04:22;;;;;;;11.05;8.90;;;;;;;;;;5045606;28;20108;-84
2021/10/24 07:07:05;;;;;;;15.40;8.88;;;;;;;;;;5030562;28;20037;-85
2021/10/24 07:09:49;;;;;;;10.32;7.85;;;;;;;;;;5049785;28;20038;-84
2021/10/24 07:12:17;;;;;;;10.93;7.88;;;;;;;;;;5034131;28;20051;-84
2021/10/24 07:14:44;;;;;;;12.32;9.50;;;;;;;;;;5037400;28;20044;-86
2021/10/24 07:17:13;;;;;;;15.82;10.75;;;;;;;;;;5032309;28;20126;-86
2021/10/24 07:19:42;;;;;;;13.75;9.90;;;;;;;;;;5014380;28;20052;-85
2021/10/24 07:22:16;;;;;;;14.77;9.80;;;;;;;;;;5005317;28;20159;-85
2021/10/24 07:25:16;;;;;;;11.50;9.38;;;;;;;;;;4974975;28;20042;-85
2021/10/24 07:27:44;;;;;;;14.60;12.57;;;;;;;;;;5007476;28;20057;-85
2021/10/24 07:30:12;;;;;;;8.55;7.75;;;;;;;;;;5008313;28;20045;-85
2021/10/24 07:32:51;;;;;;;9.48;8.13;;;;;;;;;;5005978;28;20068;-85
2021/10/24 07:35:39;;;;;;;9.50;7.60;;;;;;;;;;5021746;28;20061;-86
2021/10/24 07:38:07;;;;;;;9.43;6.65;;;;;;;;;;5007874;28;20045;-86
2021/10/24 07:40:39;;;;;;;8.40;6.60;;;;;;;;;;5022167;28;20030;-86
2021/10/24 07:43:11;;;;;;;9.43;8.52;;;;;;;;;;5005033;28;20487;-86
2021/10/24 07:45:38;;;;;;;6.72;6.13;;;;;;;;;;5009622;28;20451;-87
2021/10/24 07:48:06;;;;;;;6.80;6.10;;;;;;;;;;5004928;28;20514;-86
2021/10/24 07:50:36;;;;;;;6.63;6.03;;;;;;;;;;5023301;28;20034;-86
2021/10/24 07:53:06;;;;;;;8.32;6.22;;;;;;;;;;5012762;28;20549;-87
2021/10/24 07:55:38;;;;;;;7.53;5.65;;;;;;;;;;5009533;28;20414;-85
2021/10/24 07:58:12;;;;;;;6.68;6.07;;;;;;;;;;5011743;28;20047;-85
2021/10/24 08:00:39;;;;;;;6.72;5.80;;;;;;;;;;5007936;28;20052;-89
2021/10/24 08:03:07;;;;;;;8.05;5.38;;;;;;;;;;5010071;28;20053;-85
2021/10/24 08:05:37;;;;;;;5.90;5.40;;;;;;;;;;5007526;28;20515;-84
2021/10/24 08:08:07;;;;;;;7.20;5.43;;;;;;;;;;5010068;28;20052;-83
2021/10/24 08:10:35;;;;;;;9.75;8.25;;;;;;;;;;5003769;28;20049;-89
2021/10/24 08:13:03;;;;;;;8.85;7.95;;;;;;;;;;5008780;28;20142;-83
2021/10/24 08:15:30;;;;;;;7.43;6.72;;;;;;;;;;5006753;28;20059;-85
2021/10/24 08:17:59;;;;;;;12.02;6.97;;;;;;;;;;5020413;28;20878;-83
2021/10/24 08:20:46;;;;;;;8.70;6.40;;;;;;;;;;5028191;28;20211;-84
2021/10/24 08:23:16;;;;;;;9.23;7.20;;;;;;;;;;5009764;28;20095;-82
2021/10/24 08:25:43;;;;;;;10.65;8.73;;;;;;;;;;5006905;28;20429;-84
2021/10/24 08:28:11;;;;;;;9.10;7.55;;;;;;;;;;5006712;28;20033;-83
2021/10/24 08:31:12;;;;;;;13.27;7.53;;;;;;;;;;4989108;28;20049;-84
2021/10/24 08:33:42;;;;;;;10.48;6.93;;;;;;;;;;5008707;28;20271;-84
2021/10/24 08:36:09;;;;;;;11.75;6.88;;;;;;;;;;5023116;28;20041;-84
2021/10/24 08:38:38;;;;;;;11.57;6.72;;;;;;;;;;5029266;28;20103;-87
2021/10/24 08:41:05;;;;;;;13.20;6.50;;;;;;;;;;5027291;28;20077;-84
2021/10/24 08:43:35;;;;;;;13.48;6.63;;;;;;;;;;5024190;28;20045;-84
2021/10/24 08:46:05;;;;;;;9.55;5.90;;;;;;;;;;5022443;28;20042;-83
2021/10/24 08:48:34;;;;;;;9.77;5.63;;;;;;;;;;5012611;28;20072;-83
2021/10/24 08:51:01;;;;;;;13.25;5.45;;;;;;;;;;5022922;28;20041;-83
2021/10/24 08:53:30;;;;;;;9.13;5.70;;;;;;;;;;5006530;28;20053;-83
2021/10/24 08:55:59;;;;;;;10.68;5.10;;;;;;;;;;5009361;28;20045;-83
2021/10/24 08:58:26;;;;;;;9.65;5.20;;;;;;;;;;5023944;28;20037;-83
2021/10/24 09:00:54;;;;;;;9.88;5.15;;;;;;;;;;5005690;28;20671;-84
2021/10/24 09:03:22;;;;;;;8.32;5.85;;;;;;;;;;5005183;28;20052;-85
2021/10/24 09:05:49;;;;;;;8.60;5.50;;;;;;;;;;5024028;28;20091;-84
2021/10/24 09:08:18;;;;;;;13.00;5.95;;;;;;;;;;5026231;28;20068;-85
2021/10/24 09:10:46;;;;;;;12.32;5.95;;;;;;;;;;5023273;28;20430;-85
2021/10/24 09:13:16;;;;;;;11.63;5.50;;;;;;;;;;5023681;28;20057;-83
2021/10/24 09:15:48;;;;;;;10.48;5.03;;;;;;;;;;5025499;28;20033;-84
2021/10/24 09:18:16;;;;;;;8.13;5.00;;;;;;;;;;5024552;28;20069;-84
2021/10/24 09:20:44;;;;;;;6.50;4.45;;;;;;;;;;5007132;28;20033;-84
2021/10/24 09:23:12;;;;;;;7.78;4.57;;;;;;;;;;5012085;28;20099;-85
2021/10/24 09:25:50;;;;;;;11.32;5.60;;;;;;;;;;5024084;28;20520;-84
2021/10/24 09:28:21;;;;;;;6.20;4.32;;;;;;;;;;5010015;28;20136;-85
2021/10/24 09:30:49;;;;;;;11.55;5.07;;;;;;;;;;5022869;28;20041;-85
2021/10/24 09:33:19;;;;;;;8.82;4.53;;;;;;;;;;5005053;28;20033;-85
2021/10/24 09:35:48;;;;;;;7.47;4.65;;;;;;;;;;5025264;28;20565;-85
2021/10/24 09:38:45;;;;;;;8.40;4.75;;;;;;;;;;5001896;28;20053;-86
2021/10/24 09:41:32;;;;;;;9.98;4.90;;;;;;;;;;5008636;28;20148;-86
2021/10/24 09:44:10;;;;;;;11.43;5.07;;;;;;;;;;5026513;28;20041;-84
2021/10/24 09:46:37;;;;;;;10.13;5.03;;;;;;;;;;5029553;28;20461;-85
2021/10/24 09:49:17;;;;;;;7.03;4.53;;;;;;;;;;5036546;28;20033;-83
2021/10/24 09:51:45;;;;;;;10.88;5.05;;;;;;;;;;5028416;28;20061;-85
2021/10/24 09:54:19;;;;;;;8.98;5.00;;;;;;;;;;5020449;28;20096;-84
2021/10/24 09:56:47;;;;;;;7.55;4.38;;;;;;;;;;5044693;28;21074;-84
2021/10/24 09:59:18;;;;;;;7.43;4.55;;;;;;;;;;5055197;28;20021;-85
2021/10/24 10:01:47;;;;;;;8.85;4.22;;;;;;;;;;5051398;28;20051;-84
2021/10/24 10:04:14;;;;;;;5.80;4.45;;;;;;;;;;5055136;28;20056;-86
2021/10/24 10:06:45;;;;;;;10.00;4.25;;;;;;;;;;5034532;28;20491;-84
2021/10/24 10:09:15;;;;;;;9.38;4.20;;;;;;;;;;5029857;28;20041;-85
2021/10/24 10:11:48;;;;;;;11.85;4.78;;;;;;;;;;5007471;28;20051;-84
2021/10/24 10:14:18;;;;;;;7.47;4.22;;;;;;;;;;5024202;28;20045;-85
2021/10/24 10:16:51;;;;;;;9.93;4.15;;;;;;;;;;5028542;28;20038;-84
2021/10/24 10:21:58;;;;;;;9.00;4.00;;;;;;;;;;5060358;28;20048;-83
2021/10/24 10:24:45;;;;;;;10.55;4.07;;;;;;;;;;5062093;28;20045;-82
2021/10/24 10:27:32;;;;;;;8.13;4.30;;;;;;;;;;5055032;28;20049;-83
2021/10/24 10:30:01;;;;;;;7.20;4.13;;;;;;;;;;5048370;28;20434;-82
2021/10/24 10:32:34;;;;;;;10.32;3.42;;;;;;;;;;5040026;28;20482;-83
2021/10/24 10:35:04;;;;;;;7.22;3.90;;;;;;;;;;5041054;28;20640;-83
2021/10/24 10:37:42;;;;;;;9.07;3.60;;;;;;;;;;5042214;28;20162;-84
2021/10/24 10:40:14;;;;;;;11.85;4.55;;;;;;;;;;5038570;28;20052;-83
2021/10/24 10:42:52;;;;;;;7.55;3.78;;;;;;;;;;5040739;28;20092;-83
2021/10/24 10:45:21;;;;;;;7.90;3.95;;;;;;;;;;5038959;28;20044;-84
2021/10/24 10:47:53;;;;;;;7.70;3.65;;;;;;;;;;5043176;28;20047;-86
2021/10/24 10:50:43;;;;;;;9.63;4.25;;;;;;;;;;5047488;28;20075;-85
2021/10/24 10:53:11;;;;;;;10.77;4.13;;;;;;;;;;5064800;28;20029;-87
2021/10/24 10:55:53;;;;;;;6.65;3.28;;;;;;;;;;5064757;28;20059;-84
2021/10/24 10:58:30;;;;;;;7.88;4.10;;;;;;;;;;5021296;28;20060;-84
2021/10/24 11:00:57;;;;;;;;;;;;;;;;;;5053159;28;20079;-84
2021/10/24 11:03:39;;;;;;;8.03;3.07;;;;;;;;;;5057482;28;19920;-84
2021/10/24 11:06:11;;;;;;;7.75;3.55;;;;;;;;;;5042764;28;20087;-83
2021/10/24 11:08:49;;;;;;;5.95;3.35;;;;;;;;;;5037239;28;20128;-83
2021/10/24 11:11:36;;;;;;;10.02;3.65;;;;;;;;;;5038263;28;20042;-83
2021/10/24 11:14:03;;;;;;;6.72;3.25;;;;;;;;;;5039435;28;20056;-83
2021/10/24 11:16:40;;;;;;;4.85;3.42;;;;;;;;;;5034409;28;20034;-83
2021/10/24 11:19:22;;;;;;;8.57;3.15;;;;;;;;;;5036522;28;20128;-83
2021/10/24 11:21:52;;;;;;;8.00;3.65;;;;;;;;;;5039684;28;20075;-82
2021/10/24 11:24:19;;;;;;;7.22;4.15;;;;;;;;;;5043770;28;20836;-83
2021/10/24 11:26:47;;;;;;;7.10;3.30;;;;;;;;;;5034714;28;20167;-84
2021/10/24 11:29:14;;;;;;;9.20;3.65;;;;;;;;;;5038974;28;20454;-85
2021/10/24 11:31:42;;;;;;;4.43;2.83;;;;;;;;;;5044527;28;20067;-85
2021/10/24 11:34:14;;;;;;;14.02;3.63;;;;;;;;;;5043817;28;20079;-84
2021/10/24 11:36:46;;;;;;;4.88;3.20;;;;;;;;;;5051779;28;20122;-85
2021/10/24 11:39:15;;;;;;;9.40;3.53;;;;;;;;;;5025642;28;20677;-84
2021/10/24 11:41:42;;;;;;;4.88;3.10;;;;;;;;;;5045931;28;20029;-84
2021/10/24 11:44:10;;;;;;;6.55;3.38;;;;;;;;;;5030584;28;20045;-84
2021/10/24 11:46:38;;;;;;;6.53;3.30;;;;;;;;;;5049906;28;20040;-86
2021/10/24 11:49:05;;;;;;;9.25;3.33;;;;;;;;;;5026684;28;20075;-85
2021/10/24 11:51:34;;;;;;;8.18;3.20;;;;;;;;;;5046199;28;20104;-85
2021/10/24 11:54:02;;;;;;;5.65;3.28;;;;;;;;;;5047401;28;20033;-85
2021/10/24 11:56:51;;;;;;;7.20;3.08;;;;;;;;;;5026638;28;20124;-86
2021/10/24 11:59:25;;;;;;;7.82;3.65;;;;;;;;;;5042176;28;20049;-85
2021/10/24 12:01:52;;;;;;;5.43;3.30;;;;;;;;;;5041071;28;20048;-85
2021/10/24 12:04:19;;;;;;;7.85;3.40;;;;;;;;;;5049614;28;20045;-88
2021/10/24 12:06:58;;;;;;;7.68;2.90;;;;;;;;;;5041532;28;20052;-90
2021/10/24 12:12:42;;;;;;;6.10;3.03;;;;;;;;;;5033781;28;20053;-92
2021/10/24 12:15:16;;;;;;;6.18;2.63;;;;;;;;;;5038432;28;20159;-90
2021/10/24 12:17:44;;;;;;;5.90;2.80;;;;;;;;;;5053975;28;20037;-89
2021/10/24 12:20:21;;;;;;;8.25;3.05;;;;;;;;;;5045017;28;20041;-92
2021/10/24 12:23:09;;;;;;;7.13;2.65;;;;;;;;;;5048119;28;20529;-91
2021/10/24 12:25:37;;;;;;;;;;;;;;;;;;5035337;28;20482;-90
2021/10/24 12:28:17;;;;;;;8.02;3.15;;;;;;;;;;5049721;28;19932;-92
2021/10/24 12:30:50;;;;;;;8.90;2.92;;;;;;;;;;5039236;28;20075;-90
2021/10/24 12:33:26;;;;;;;7.75;2.88;;;;;;;;;;5025662;28;20041;-87
2021/10/24 12:35:55;;;;;;;5.30;2.75;;;;;;;;;;5037949;28;20037;-87
2021/10/24 12:38:23;;;;;;;4.97;2.88;;;;;;;;;;5041703;28;20049;-86
2021/10/24 12:40:52;;;;;;;7.03;2.78;;;;;;;;;;5029459;28;20064;-86
2021/10/24 12:43:19;;;;;;;6.55;2.65;;;;;;;;;;5038627;28;20072;-87
2021/10/24 12:46:04;;;;;;;5.15;2.78;;;;;;;;;;5031630;28;20055;-86
2021/10/24 12:48:44;;;;;;;4.30;2.60;;;;;;;;;;5047956;28;20049;-88
2021/10/24 12:51:25;;;;;;;4.40;2.70;;;;;;;;;;5037569;28;20255;-86
2021/10/24 12:53:55;;;;;;;5.63;3.00;;;;;;;;;;5046476;28;20037;-86
2021/10/24 12:56:23;;;;;;;8.45;3.78;;;;;;;;;;5066443;28;20032;-85
2021/10/24 12:58:50;;;;;;;7.80;3.33;;;;;;;;;;5072571;28;20059;-84
2021/10/24 13:01:22;;;;;;;6.40;3.05;;;;;;;;;;5071159;28;20070;-85
2021/10/24 13:03:50;;;;;;;7.32;2.58;;;;;;;;;;5048102;28;20380;-86
2021/10/24 13:06:18;;;;;;;5.45;2.55;;;;;;;;;;5050299;28;20500;-87
2021/10/24 13:08:45;;;;;;;4.55;2.40;;;;;;;;;;5054657;28;20370;-87
2021/10/24 13:11:14;;;;;;;5.30;2.45;;;;;;;;;;5030665;28;20147;-88
2021/10/24 13:13:43;;;;;;;6.70;2.80;;;;;;;;;;5049381;28;20067;-87
2021/10/24 13:16:11;;;;;;;3.90;2.17;;;;;;;;;;5033512;28;20092;-86
2021/10/24 13:18:38;;;;;;;7.68;2.50;;;;;;;;;;5041418;28;20033;-87
2021/10/24 13:21:11;;;;;;;4.93;2.90;;;;;;;;;;5040500;28;20136;-86
2021/10/24 13:23:40;;;;;;;6.65;2.25;;;;;;;;;;5041517;28;20136;-87
2021/10/24 13:26:07;;;;;;;5.85;2.45;;;;;;;;;;5038823;28;20454;-88
2021/10/24 13:28:38;;;;;;;3.50;2.00;;;;;;;;;;5042871;28;20602;-87
2021/10/24 13:37:51;;;;;;;5.07;2.20;;;;;;;;;;5062973;28;20188;-90
2021/10/24 13:40:20;;;;;;;4.20;2.20;;;;;;;;;;5024766;28;20049;-89
2021/10/24 13:42:51;;;;;;;4.38;2.13;;;;;;;;;;5037196;28;20123;-88
2021/10/24 13:45:19;;;;;;;4.10;2.20;;;;;;;;;;5040872;28;20045;-88
2021/10/24 13:47:47;;;;;;;3.83;2.00;;;;;;;;;;5032641;28;20037;-86
2021/10/24 13:50:15;;;;;;;3.63;2.50;;;;;;;;;;5036042;28;20037;-86
2021/10/24 13:52:49;;;;;;;6.97;2.78;;;;;;;;;;5051697;28;20505;-85
2021/10/24 13:55:21;;;;;;;3.70;2.20;;;;;;;;;;5029275;28;20128;-86
2021/10/24 13:57:55;;;;;;;4.05;2.00;;;;;;;;;;5017494;28;20041;-86
2021/10/24 14:00:41;;;;;;;5.50;2.15;;;;;;;;;;5041965;28;20045;-87
2021/10/24 14:03:16;;;;;;;5.93;2.20;;;;;;;;;;5037496;28;20037;-86
2021/10/24 14:05:47;;;;;;;5.63;2.15;;;;;;;;;;5048094;28;20038;-86
2021/10/24 14:08:17;;;;;;;6.05;2.67;;;;;;;;;;5047889;28;20156;-87
2021/10/24 14:10:57;;;;;;;6.18;2.50;;;;;;;;;;5032346;28;20048;-86
2021/10/24 14:13:30;;;;;;;6.28;2.20;;;;;;;;;;5042148;28;20095;-87
2021/10/24 14:16:05;;;;;;;8.23;2.40;;;;;;;;;;5047184;28;20056;-86
2021/10/24 14:18:44;;;;;;;6.30;2.15;;;;;;;;;;5048281;28;20135;-86
2021/10/24 14:21:29;;;;;;;4.90;1.98;;;;;;;;;;5024717;28;20047;-86
2021/10/24 14:26:58;;;;;;;5.15;2.42;;;;;;;;;;5013427;28;20068;-87
2021/10/24 14:29:38;;;;;;;4.57;2.05;;;;;;;;;;5022204;28;20052;-87
2021/10/24 14:32:31;;;;;;;2.60;1.90;;;;;;;;;;5036382;28;20055;-87
2021/10/24 14:35:01;;;;;;;5.15;2.40;;;;;;;;;;5011667;28;20131;-88
2021/10/24 14:37:43;;;;;;;4.93;2.22;;;;;;;;;;5011049;28;20103;-87
2021/10/24 14:40:17;;;;;;;3.92;1.92;;;;;;;;;;5026608;28;20040;-87
2021/10/24 14:42:49;;;;;;;3.72;2.03;;;;;;;;;;5040969;28;20026;-86
2021/10/24 14:45:21;;;;;;;2.67;1.80;;;;;;;;;;5040858;28;20084;-87
2021/10/24 14:47:52;;;;;;;4.95;2.05;;;;;;;;;;5026941;28;20080;-87
2021/10/24 14:50:25;;;;;;;4.50;2.15;;;;;;;;;;5022440;28;20107;-87
2021/10/24 14:53:16;;;;;;;4.03;2.33;;;;;;;;;;5012861;28;20037;-86
2021/10/24 14:55:47;;;;;;;4.72;1.83;;;;;;;;;;5030889;28;20068;-88
2021/10/24 14:58:19;;;;;;;4.03;2.25;;;;;;;;;;5032599;28;20121;-86
2021/10/24 15:00:54;;;;;;;9.18;2.55;;;;;;;;;;5009273;28;20126;-87
2021/10/24 15:10:49;;;;;;;4.93;2.70;;;;;;;;;;4873805;29;20053;-88
2021/10/24 15:17:01;;;;;;;5.82;2.58;;;;;;;;;;5028496;28;20041;-87
2021/10/24 15:22:39;;;;;;;4.63;2.15;;;;;;;;;;4977247;28;20045;-87
2021/10/24 15:25:07;;;;;;;3.42;2.30;;;;;;;;;;5010416;28;20060;-87
2021/10/24 15:27:34;;;;;;;3.28;2.38;;;;;;;;;;5008989;28;20049;-86
2021/10/24 15:30:02;;;;;;;11.68;3.00;;;;;;;;;;5009322;28;20055;-86
2021/10/24 15:32:31;;;;;;;5.25;2.45;;;;;;;;;;5006706;28;20078;-85
2021/10/24 15:35:00;;;;;;;4.10;2.65;;;;;;;;;;5023255;28;20046;-87
2021/10/24 15:37:28;;;;;;;5.15;2.30;;;;;;;;;;5023462;28;20133;-87
2021/10/24 15:39:56;;;;;;;7.85;2.78;;;;;;;;;;5025029;28;20487;-87
2021/10/24 15:42:24;;;;;;;6.15;2.70;;;;;;;;;;5025731;28;20046;-87
2021/10/24 15:44:52;;;;;;;5.97;2.58;;;;;;;;;;5024033;28;20109;-86
2021/10/24 15:47:20;;;;;;;4.65;2.45;;;;;;;;;;5027723;28;20052;-88
2021/10/24 15:49:50;;;;;;;5.78;2.58;;;;;;;;;;5025788;28;20048;-88
2021/10/24 15:52:18;;;;;;;3.63;2.20;;;;;;;;;;5022393;28;20037;-87
2021/10/24 15:54:47;;;;;;;4.22;2.47;;;;;;;;;;5036091;28;20041;-86
2021/10/24 15:57:15;;;;;;;6.93;2.58;;;;;;;;;;5047506;28;20032;-87
2021/10/24 15:59:43;;;;;;;7.57;3.22;;;;;;;;;;5047894;28;20060;-87
2021/10/24 16:02:10;;;;;;;7.65;2.90;;;;;;;;;;5046311;28;20022;-87
2021/10/24 16:04:38;;;;;;;7.07;2.45;;;;;;;;;;5046209;28;20071;-86
2021/10/24 16:07:07;;;;;;;5.35;2.50;;;;;;;;;;5036624;28;20370;-87
2021/10/24 16:09:35;;;;;;;5.28;2.40;;;;;;;;;;5026531;28;20096;-88
2021/10/24 16:12:05;;;;;;;4.05;2.65;;;;;;;;;;5046287;28;20461;-86
2021/10/24 16:15:03;;;;;;;8.93;2.90;;;;;;;;;;5042125;28;20060;-88
2021/10/24 16:17:35;;;;;;;7.97;2.50;;;;;;;;;;5038657;28;20045;-89
2021/10/24 16:20:03;;;;;;;4.35;2.50;;;;;;;;;;5033731;28;20042;-87
2021/10/24 16:22:42;;;;;;;4.53;2.60;;;;;;;;;;5033728;28;20144;-85
2021/10/24 16:25:10;;;;;;;12.43;3.72;;;;;;;;;;5038149;28;20057;-86
2021/10/24 16:53:33;;;;;;;42.42;21.67;;;;;;;;;;5976429;22;20108;-89
2021/10/24 18:25:15;;;;;;;16.55;10.30;;;;;;;;;;5094423;28;20039;-90
2021/10/24 18:27:43;;;;;;;23.58;13.57;;;;;;;;;;5093680;28;20051;-90
2021/10/24 18:30:37;;;;;;;25.00;13.48;;;;;;;;;;5084617;28;20024;-90
2021/10/24 18:33:10;;;;;;;27.73;17.08;;;;;;;;;;5085986;28;20040;-90
2021/10/24 18:35:54;;;;;;;33.35;20.70;;;;;;;;;;5087733;28;20032;-91
2021/10/24 18:38:43;;;;;;;23.02;15.02;;;;;;;;;;5080402;28;20045;-89
2021/10/24 18:41:43;;;;;;;26.02;14.60;;;;;;;;;;5074728;28;20131;-88
2021/10/24 18:44:26;;;;;;;24.70;14.85;;;;;;;;;;5064540;28;20063;-88
2021/10/24 19:06:05;;;;;;;;;;;;;;;;;;5072267;28;20056;-89
2021/10/24 19:09:06;;;;;;;17.65;12.38;;;;;;;;;;5068043;28;19947;-89
2021/10/24 19:14:48;;;;;;;26.42;12.10;;;;;;;;;;5042081;28;20044;-89
2021/10/24 19:17:20;;;;;;;20.85;12.45;;;;;;;;;;5062174;28;20067;-89
2021/10/24 19:19:50;;;;;;;18.10;12.10;;;;;;;;;;5061387;28;20094;-89
2021/10/24 19:22:48;;;;;;;19.20;10.80;;;;;;;;;;5058496;28;20048;-85
2021/10/24 19:25:16;;;;;;;17.00;10.95;;;;;;;;;;5005158;28;21564;-88
2021/10/24 19:27:44;;;;;;;17.85;11.38;;;;;;;;;;5055606;28;20078;-89
2021/10/24 19:30:16;;;;;;;17.50;10.52;;;;;;;;;;5063457;28;20099;-87
2021/10/24 19:32:43;;;;;;;21.27;11.02;;;;;;;;;;5063559;28;20060;-87
2021/10/24 19:35:14;;;;;;;18.67;11.27;;;;;;;;;;5061514;28;20045;-86
2021/10/24 19:37:42;;;;;;;20.40;12.13;;;;;;;;;;5058605;28;20505;-87
2021/10/24 19:40:10;;;;;;;19.75;11.23;;;;;;;;;;5057803;28;20045;-87
2021/10/24 19:42:38;;;;;;;19.00;11.50;;;;;;;;;;5069848;28;20296;-87
2021/10/24 19:45:06;;;;;;;17.33;11.38;;;;;;;;;;5065616;28;20109;-87
2021/10/24 19:47:35;;;;;;;17.20;11.15;;;;;;;;;;5079315;28;20036;-86
2021/10/24 19:50:02;;;;;;;24.73;14.55;;;;;;;;;;5067193;28;20041;-87
2021/10/24 19:52:33;;;;;;;28.52;15.75;;;;;;;;;;5062002;28;20056;-86
2021/10/24 19:55:04;;;;;;;24.52;16.58;;;;;;;;;;5068709;28;20079;-87
2021/10/24 19:57:31;;;;;;;21.75;15.15;;;;;;;;;;5058127;28;20554;-86
2021/10/24 20:00:00;;;;;;;23.55;14.45;;;;;;;;;;5069145;28;20075;-86
2021/10/24 20:02:28;;;;;;;23.50;17.13;;;;;;;;;;5067359;28;20060;-87
2021/10/24 20:04:56;;;;;;;19.85;15.23;;;;;;;;;;5082858;28;20044;-86
2021/10/24 20:07:24;;;;;;;19.25;13.18;;;;;;;;;;5063193;28;20040;-87
2021/10/24 20:09:52;;;;;;;18.17;12.25;;;;;;;;;;5064314;28;20036;-88
2021/10/24 20:12:19;;;;;;;17.50;12.27;;;;;;;;;;5062607;28;20041;-88
2021/10/24 20:14:47;;;;;;;16.27;11.57;;;;;;;;;;5066863;28;20048;-87
2021/10/24 20:17:14;;;;;;;17.48;11.30;;;;;;;;;;5069579;28;20045;-88
2021/10/24 20:19:42;;;;;;;19.83;12.05;;;;;;;;;;5062386;28;20040;-88
2021/10/24 20:22:11;;;;;;;16.63;11.82;;;;;;;;;;5068719;28;20036;-87
2021/10/24 20:24:38;;;;;;;18.38;12.07;;;;;;;;;;5071706;28;20047;-87
2021/10/24 20:27:07;;;;;;;21.73;12.20;;;;;;;;;;5068298;28;20068;-86
2021/10/24 20:29:35;;;;;;;16.42;11.63;;;;;;;;;;5069896;28;20051;-87
2021/10/24 20:32:04;;;;;;;23.65;15.10;;;;;;;;;;5076664;28;20324;-87
2021/10/24 20:34:31;;;;;;;17.75;12.32;;;;;;;;;;5067115;28;20055;-87
2021/10/24 20:36:59;;;;;;;16.45;10.43;;;;;;;;;;5074492;28;20235;-88
2021/10/24 20:39:28;;;;;;;14.68;9.73;;;;;;;;;;5063410;28;20064;-86
2021/10/24 20:41:56;;;;;;;15.75;10.65;;;;;;;;;;5064294;28;20112;-86
2021/10/24 20:44:23;;;;;;;19.02;11.52;;;;;;;;;;5083823;28;20036;-85
2021/10/24 20:46:51;;;;;;;16.77;10.73;;;;;;;;;;5082571;28;20106;-87
2021/10/24 20:49:19;;;;;;;21.88;12.68;;;;;;;;;;5079263;28;20041;-86
2021/10/24 20:51:49;;;;;;;14.10;10.30;;;;;;;;;;5073011;28;20039;-86
2021/10/24 20:54:16;;;;;;;17.40;12.00;;;;;;;;;;5068459;28;20491;-87
2021/10/24 20:56:49;;;;;;;21.58;12.80;;;;;;;;;;5066366;28;20041;-86
2021/10/24 20:59:16;;;;;;;16.13;11.48;;;;;;;;;;5061123;28;20037;-86
2021/10/24 21:01:44;;;;;;;19.38;11.95;;;;;;;;;;5057187;28;20044;-86
2021/10/24 21:04:11;;;;;;;17.27;11.30;;;;;;;;;;5062271;28;20483;-87
2021/10/24 21:06:39;;;;;;;22.35;11.70;;;;;;;;;;5064160;28;20048;-87
2021/10/24 21:09:07;;;;;;;16.92;11.73;;;;;;;;;;5059143;28;20064;-86
2021/10/24 21:11:34;;;;;;;15.15;10.13;;;;;;;;;;5063979;28;20041;-86
2021/10/24 21:14:03;;;;;;;15.43;10.35;;;;;;;;;;5063319;28;20036;-86
2021/10/24 21:16:31;;;;;;;17.48;10.90;;;;;;;;;;5057704;28;20131;-86
2021/10/24 21:18:58;;;;;;;16.40;10.80;;;;;;;;;;5063805;28;20249;-86
2021/10/24 21:21:26;;;;;;;12.77;9.05;;;;;;;;;;5066082;28;20098;-87
2021/10/24 21:23:53;;;;;;;15.75;9.30;;;;;;;;;;5066871;28;20128;-87
2021/10/24 21:26:20;;;;;;;13.60;8.40;;;;;;;;;;5064429;28;20053;-87
2021/10/24 21:28:48;;;;;;;16.00;8.88;;;;;;;;;;5069483;28;20040;-86
